Domov               UVHVVR             MKGP            O straneh              
ZDRAVSTVENO VARSTVO RASTLIN
  MREŽA AGROMET. POSTAJ
 ► PROGNOSTIČNA OBVESTILA
AGROMETEOROLOŠKI PODATKI -
ARSO
OBVLADOVANJE TVEGANJ ZARADI
NEUGODNIH VREMENSKIH RAZMER
  ► NARAVNE NESREČE
  ► SUŠA/MOČA
  ► NAMAKANJE
  ► ŽLED (gozdarstvo)
KARTOGRAFSKI PRIKAZI
SPLETNE POVEZAVE
PROJEKTI IN PUBLIKACIJE

AGROMETEOROLOŠKA MREŽA: VREMENSKE POSTAJE IN FENOLOŠKA OPAZOVANJA

Pregled podatkov za lokacijo Savci, meteorološka postaja 27393

Pregled senzorjev na lokaciji

ID Ime Zadnja
vrednost
Datum
zadnje
spremembe
Tip
senzorja
942 Omočenost lista (U) 3 U 17.10.2017 23:46 A730WET
943 Temperatura 2 m ( °C) 10,01 °C 17.10.2017 23:46 Generic -40 - +60 °C
944 Relativna vlaga 2 m (% RH) 99,93 % RH 17.10.2017 23:46 Generic 0 - 100 %
1378 Padavine 0.2 mm (mm) 0 mm 17.10.2017 23:46 Generic 0.2 mm

Pregled podatkov zadnjih 24 ur

Zap.
št.
Datum in čas Savci
Omočenost
lista
Padavine
0.2
mm
Relativna
vlaga
2
m
Temperatura
2
m
0 17.10.2017 23:00 3 0 99,93 10,01
1 17.10.2017 22:30 3 0 99,93 9,77
2 17.10.2017 22:00 3 0 99,93 9,94
3 17.10.2017 21:30 3 0 98,02 10,16
4 17.10.2017 21:00 3 0 98,71 10,55
5 17.10.2017 20:30 3 0 98,02 10,79
6 17.10.2017 20:00 3 0 97,97 11,28
7 17.10.2017 19:30 3 0 97,12 11,7
8 17.10.2017 19:00 4 0 96,36 12,41
9 17.10.2017 18:30 4 0 96,36 12,72
10 17.10.2017 18:00 4 0 95,78 13,33
11 17.10.2017 17:30 3 0 93,75 14,77
12 17.10.2017 17:00 1 0 90,82 17,02
13 17.10.2017 16:30 0 0 75,34 20,51
14 17.10.2017 16:00 0 0 59,8 21,64
15 17.10.2017 15:30 0 0 58,97 22,03
16 17.10.2017 15:00 0 0 60,29 22,08
17 17.10.2017 14:30 0 0 56,31 22,78
18 17.10.2017 14:00 0 0 55,78 22,78
19 17.10.2017 13:30 0 0 54,53 22,42
20 17.10.2017 13:00 0 0 56,63 22,03
21 17.10.2017 12:30 0 0 56,97 21,27
22 17.10.2017 12:00 0 0 60,37 20,39
23 17.10.2017 11:30 0 0 62,78 19,68
24 17.10.2017 11:00 0 0 67,62 18,85
25 17.10.2017 10:30 0 0 67,16 18,36
26 17.10.2017 10:00 0 0 72,99 16,97
27 17.10.2017 09:30 1 0 77,88 14,9
28 17.10.2017 09:00 3 0 84,49 13,04
29 17.10.2017 08:30 3 0 92,43 11,01
30 17.10.2017 08:00 3 0 99,93 8,64
31 17.10.2017 07:30 3 0 99,93 6,76
32 17.10.2017 07:00 3 0 99,93 5,45
33 17.10.2017 06:30 3 0 99,93 5,23
34 17.10.2017 06:00 3 0 99,93 5,42
35 17.10.2017 05:30 3 0 99,93 5,54
36 17.10.2017 05:00 3 0 99,93 6,15
37 17.10.2017 04:30 3 0 99,93 6,11
38 17.10.2017 04:00 3 0 99,93 6,11
39 17.10.2017 03:30 3 0 99,93 6,11
40 17.10.2017 03:00 3 0 99,93 6,23
41 17.10.2017 02:30 3 0 99,93 6,42
42 17.10.2017 02:00 3 0 99,93 6,59
43 17.10.2017 01:30 3 0 99,93 7,01
44 17.10.2017 01:00 3 0 99,93 7,23
45 17.10.2017 00:30 3 0 99,93 7,3
© 2011 Ministrstvo za kmetijstvo, gozdarstvo in prehrano. Vse pravice pridržane.